Latest Weather Observations for Mackay Airport

IDQ60801

Issued at 5:02 pm EST Saturday 18 April 2015 (issued every 30 minutes, with the page automatically refreshed every 10 minutes)

About weather observations | Map of weather stations | Latest weather observations for QLD | Other Formats
Station Details ID: 033045 Name: MACKAY AERO Lat: -21.17 Lon: 149.18 Height: 4.7 m
Data from the previous 72 hours. | See also: Recent months at Mackay Airport
Date/Time
EST
Temp
°C
App
Temp
°C
Dew
Point
Rel
Hum
%
Delta-T
°C
Wind Press
QNH
hPa
Press
MSL
hPa
Rain
since 9 am
mm
Dir
 
Spd
km/h
Gust
km/h
Spd
kts
Gust
kts
18/05:00pm 26.7 27.1 21.0 71 3.8 E 20 30 11 16 1015.7 1015.7 0.0
18/04:30pm 26.9 27.5 21.4 72 3.7 ESE 20 28 11 15 1015.4 1015.4 0.0
18/04:00pm 27.5 28.4 21.5 70 4.0 ESE 19 20 10 11 1015.4 1015.4 0.0
18/03:30pm 27.7 28.1 21.7 70 4.0 SE 22 30 12 16 1015.5 1015.5 0.0
18/03:00pm 28.4 30.0 22.2 69 4.2 E 17 24 9 13 1015.4 1015.4 0.0
18/02:30pm 28.1 28.7 21.1 65 4.6 ESE 19 24 10 13 1015.5 1015.5 0.0
18/02:00pm 28.6 28.9 20.3 60 5.5 ESE 19 24 10 13 1015.6 1015.6 0.0
18/01:30pm 28.5 29.5 21.0 64 5.0 E 17 22 9 12 1015.9 1015.9 0.0
18/01:00pm 29.1 30.0 21.6 64 5.0 ESE 19 24 10 13 1016.5 1016.5 0.0
18/12:30pm 28.6 29.0 20.6 62 5.3 ESE 19 24 10 13 1016.7 1016.7 0.0
18/12:00pm 28.5 28.4 20.0 60 5.6 ESE 20 24 11 13 1017.2 1017.2 0.0
18/11:30am 28.8 28.9 20.0 59 5.8 E 19 24 10 13 1017.8 1017.8 0.0
18/11:00am 28.8 28.9 20.3 60 5.6 E 20 26 11 14 1018.3 1018.3 0.0
18/10:30am 28.5 28.7 20.5 62 5.3 E 20 24 11 13 1018.6 1018.6 0.0
18/10:00am 27.6 27.0 19.7 62 5.1 E 22 28 12 15 1018.6 1018.6 0.0
18/09:30am 28.1 27.3 20.1 62 5.2 E 24 32 13 17 1018.2 1018.2 0.0
18/09:00am 27.6 27.7 21.2 68 4.2 ESE 22 30 12 16 1018.3 1018.3 0.0
18/08:30am 27.1 26.7 19.4 62 5.0 E 20 26 11 14 1018.1 1018.1 0.0
18/08:00am 26.9 27.1 20.5 68 4.2 E 20 28 11 15 1017.7 1017.7 0.0
18/07:30am 26.3 26.2 19.9 68 4.2 E 20 26 11 14 1017.2 1017.2 0.0
18/07:00am 25.7 25.3 19.3 67 4.1 E 20 28 11 15 1016.8 1016.8 0.0
18/06:30am 25.3 25.1 19.7 71 3.6 E 20 28 11 15 1016.5 1016.5 0.0
18/06:00am 25.2 24.5 19.6 71 3.6 E 22 28 12 15 1016.1 1016.1 0.0
18/05:30am 25.2 25.4 20.5 75 3.1 E 20 28 11 15 1016.0 1016.0 0.0
18/05:00am 25.1 26.0 20.8 77 2.8 E 17 20 9 11 1015.7 1015.7 0.0
18/04:30am 25.2 25.2 20.2 74 3.3 E 20 26 11 14 1015.4 1015.4 0.0
18/04:00am 24.9 25.1 20.2 75 3.1 E 19 24 10 13 1015.7 1015.7 0.0
18/03:30am 25.0 25.5 20.0 74 3.2 E 17 20 9 11 1016.0 1016.0 0.0
18/03:00am 25.2 25.2 19.8 72 3.5 E 19 22 10 12 1016.2 1016.2 0.0
18/02:30am 25.5 25.3 19.4 69 3.9 E 19 24 10 13 1016.4 1016.4 0.0
18/02:00am 25.4 25.3 20.0 72 3.5 E 20 24 11 13 1016.4 1016.4 0.0
18/01:30am 25.6 25.0 19.7 70 3.8 E 22 30 12 16 1016.6 1016.6 0.0
18/01:00am 25.9 25.5 20.9 74 3.3 E 24 30 13 16 1016.6 1016.6 0.0
18/12:30am 25.4 25.6 21.3 78 2.7 E 22 30 12 16 1016.9 1016.9 0.0
 
Date/Time
EST
Temp
°C
App
Temp
°C
Dew
Point
Rel
Hum
%
Delta-T
°C
Wind Press
QNH
hPa
Press
MSL
hPa
Rain
since 9 am
mm
Dir
 
Spd
km/h
Gust
km/h
Spd
kts
Gust
kts
17/11:30pm 25.4 25.4 20.9 76 3.0 E 22 30 12 16 1017.3 1017.3 0.0
17/11:00pm 25.7 24.8 21.4 77 2.8 E 28 37 15 20 1017.5 1017.5 0.0
17/10:30pm 25.4 25.0 21.7 80 2.5 E 26 35 14 19 1017.3 1017.3 0.0
17/10:00pm 25.8 25.4 21.7 78 2.7 E 26 35 14 19 1017.2 1017.2 0.0
17/09:30pm 25.9 25.6 21.1 75 3.2 E 24 32 13 17 1017.6 1017.6 0.0
17/09:00pm 25.8 25.8 21.0 75 3.2 ESE 22 30 12 16 1017.5 1017.5 0.0
17/08:30pm 25.7 25.6 20.7 74 3.3 E 22 28 12 15 1017.4 1017.4 0.0
17/08:00pm 25.9 25.4 20.7 73 3.4 ESE 24 33 13 18 1017.3 1017.3 0.0
17/07:30pm 25.7 25.4 20.3 72 3.5 ESE 22 28 12 15 1017.0 1017.0 0.0
17/07:00pm 25.8 25.0 20.1 71 3.7 ESE 24 32 13 17 1016.6 1016.6 0.0
17/06:30pm 25.5 25.2 20.3 73 3.4 ESE 22 30 12 16 1016.3 1016.3 0.0
17/06:00pm 25.7 26.0 20.7 74 3.3 ESE 20 26 11 14 1016.0 1016.0 0.0
17/05:30pm 25.9 25.9 20.2 71 3.7 E 20 28 11 15 1015.8 1015.8 0.0
17/05:00pm 26.9 26.0 20.7 69 4.1 ESE 26 33 14 18 1015.6 1015.6 0.0
17/04:30pm 27.1 25.6 20.2 66 4.5 ESE 28 33 15 18 1015.5 1015.5 0.0
17/04:00pm 27.2 25.7 20.3 66 4.5 ESE 28 35 15 19 1015.4 1015.4 0.0
17/03:30pm 28.0 26.9 21.1 66 4.6 ESE 28 37 15 20 1015.6 1015.6 0.0
17/03:00pm 28.0 26.5 20.3 63 5.1 ESE 28 35 15 19 1015.5 1015.5 0.0
17/02:30pm 28.4 28.2 21.2 65 4.8 ESE 24 33 13 18 1015.8 1015.8 0.0
17/02:00pm 28.5 27.3 20.8 63 5.1 ESE 28 35 15 19 1015.9 1015.9 0.0
17/01:30pm 28.3 26.6 20.6 63 5.1 ESE 30 35 16 19 1016.3 1016.3 0.0
17/01:00pm 28.1 27.2 21.4 67 4.5 ESE 28 37 15 20 1016.6 1016.6 0.0
17/12:30pm 26.7 26.2 21.5 73 3.5 SE 26 33 14 18 1017.2 1017.2 0.0
17/12:00pm 27.8 27.6 22.7 74 3.5 SE 28 37 15 20 1017.6 1017.6 0.0
17/11:30am 26.3 26.3 21.7 76 3.1 SE 24 35 13 19 1018.2 1018.2 0.0
17/11:00am 27.0 25.6 22.0 74 3.3 SE 32 39 17 21 1018.7 1018.7 0.0
17/10:30am 26.6 26.0 22.0 76 3.1 SE 28 37 15 20 1019.0 1019.0 0.0
17/10:00am 26.3 26.0 22.6 80 2.5 SE 28 39 15 21 1019.3 1019.3 0.0
17/09:30am 25.1 25.4 22.2 84 1.9 SSE 24 32 13 17 1019.5 1019.5 0.0
17/09:00am 23.5 24.0 21.2 87 1.5 SSE 20 28 11 15 1019.5 1019.5 4.0
17/08:30am 24.2 25.5 21.7 86 1.7 SSE 17 28 9 15 1019.4 1019.4 4.0
17/08:00am 23.0 24.5 21.3 90 1.1 SSE 15 22 8 12 1019.3 1019.3 4.0
17/07:30am 22.0 23.3 20.8 93 0.8 S 15 20 8 11 1019.0 1019.0 4.0
17/07:00am 21.7 23.3 20.7 94 0.6 S 13 17 7 9 1018.7 1018.7 4.0
17/06:30am 21.3 23.1 20.3 94 0.6 SSW 11 13 6 7 1018.5 1018.5 4.0
17/06:01am 21.6 24.2 20.4 93 0.8 SSW 7 13 4 7 1018.3 1018.3 4.0
17/06:00am 21.6 24.4 20.4 93 0.8 SSW 6 9 3 5 1018.3 1018.3 4.0
17/05:42am 21.9 23.5 20.7 93 0.8 ESE 13 24 7 13 1018.2 1018.2 3.8
17/05:30am 21.3 23.8 20.3 94 0.6 N 7 13 4 7 1018.1 1018.1 3.2
17/05:00am 21.0 22.9 19.8 93 0.8 SW 9 13 5 7 1017.8 1017.8 3.2
17/04:30am 21.9 22.8 20.0 89 1.2 S 15 19 8 10 1017.4 1017.4 3.2
17/04:00am 21.8 22.4 20.3 91 1.0 S 17 22 9 12 1017.3 1017.3 3.2
17/03:30am 21.7 22.7 20.2 91 1.0 S 15 20 8 11 1017.5 1017.5 3.2
17/03:00am 21.6 22.5 20.1 91 1.0 S 15 22 8 12 1017.6 1017.6 3.2
17/02:30am 21.5 22.5 20.3 93 0.8 S 15 19 8 10 1017.7 1017.7 3.2
17/02:00am 21.8 23.3 20.6 93 0.8 S 13 17 7 9 1018.1 1018.1 3.2
17/01:30am 22.0 23.5 20.6 92 0.9 S 13 19 7 10 1018.4 1018.4 3.2
17/01:00am 22.3 23.2 20.8 91 1.0 S 17 20 9 11 1018.9 1018.9 3.2
17/12:30am 22.1 23.4 20.9 93 0.8 S 15 19 8 10 1019.2 1019.2 3.2
17/12:00am 22.1 22.9 20.7 92 0.9 S 17 20 9 11 1019.6 1019.6 3.2
 
Date/Time
EST
Temp
°C
App
Temp
°C
Dew
Point
Rel
Hum
%
Delta-T
°C
Wind Press
QNH
hPa
Press
MSL
hPa
Rain
since 9 am
mm
Dir
 
Spd
km/h
Gust
km/h
Spd
kts
Gust
kts
16/11:30pm 22.3 23.8 21.3 94 0.7 S 15 20 8 11 1019.7 1019.7 3.2
16/11:10pm 22.1 24.0 21.3 95 0.5 SSW 13 19 7 10 1019.8 1019.8 3.2
16/11:00pm 21.9 23.6 20.9 94 0.6 SSW 13 17 7 9 1019.8 1019.8 3.2
16/10:48pm 22.1 23.8 20.9 93 0.8 SSW 13 20 7 11 1020.0 1020.0 2.2
16/10:30pm 22.2 24.5 20.7 91 1.0 SSW 9 13 5 7 1020.2 1020.2 1.6
16/10:00pm 23.1 25.1 21.5 91 1.1 S 13 17 7 9 1020.4 1020.4 1.4
16/09:49pm 23.3 24.8 21.2 88 1.4 ESE 15 17 8 9 1020.4 1020.4 1.2
16/09:47pm 23.2 24.6 21.1 88 1.4 ESE 15 17 8 9 1020.4 1020.4 1.2
16/09:33pm 23.1 24.8 21.0 88 1.4 SSE 13 19 7 10 1020.6 1020.6 1.2
16/09:30pm 23.4 24.8 21.1 87 1.5 SE 15 20 8 11 1020.6 1020.6 1.2
16/09:29pm 23.5 25.0 21.2 87 1.5 SE 15 20 8 11 1020.6 1020.6 1.2
16/09:00pm 23.9 22.0 20.2 80 2.4 E 30 41 16 22 1020.4 1020.4 0.8
16/08:30pm 24.8 23.8 19.6 73 3.3 ESE 24 32 13 17 1020.3 1020.3 0.8
16/08:00pm 24.7 23.1 20.8 79 2.5 E 30 39 16 21 1020.0 1020.0 0.8
16/07:30pm 24.6 22.9 19.9 75 3.0 ESE 28 33 15 18 1019.7 1019.7 0.8
16/07:00pm 24.9 22.9 21.2 80 2.4 ESE 33 43 18 23 1019.3 1019.3 0.8
16/06:30pm 24.2 22.9 21.3 84 1.9 E 30 39 16 21 1019.2 1019.2 0.8
16/06:00pm 25.3 24.5 20.8 76 2.9 SE 26 32 14 17 1018.9 1018.9 0.6
16/05:30pm 25.6 24.1 20.2 72 3.5 SE 28 35 15 19 1018.6 1018.6 0.6
16/05:00pm 26.0 24.7 20.6 72 3.5 SE 28 35 15 19 1018.3 1018.3 0.6
16/04:30pm 26.5 25.4 21.0 72 3.6 SE 28 35 15 19 1018.2 1018.2 0.6
16/04:00pm 26.8 25.5 20.6 69 4.1 SE 28 35 15 19 1018.2 1018.2 0.6
16/03:30pm 27.2 25.3 21.0 69 4.1 SE 32 41 17 22 1018.0 1018.0 0.6
16/03:00pm 27.3 25.4 21.3 69 4.0 SE 33 43 18 23 1018.1 1018.1 0.6
16/02:30pm 27.1 25.4 21.4 71 3.8 SE 32 39 17 21 1018.2 1018.2 0.6
16/02:00pm 27.0 25.7 22.4 76 3.1 SE 33 44 18 24 1018.4 1018.4 0.6
16/01:30pm 25.2 26.3 22.3 84 1.9 ESE 20 39 11 21 1018.7 1018.7 0.6
16/01:26pm 24.3 26.8 21.8 86 1.7 ESE 11 37 6 20 1018.8 1018.8 0.6
16/01:00pm 23.8 26.0 21.1 85 1.8 ESE 11 15 6 8 1019.3 1019.3 0.2
16/12:30pm 25.7 24.4 20.7 74 3.3 SSE 28 33 15 18 1019.5 1019.5 0.2
16/12:00pm 27.2 26.7 22.2 74 3.4 SE 28 37 15 20 1019.9 1019.9 0.2
16/11:30am 25.5 22.5 20.7 75 3.1 SE 37 46 20 25 1020.6 1020.6 0.2
16/11:00am 27.1 25.9 20.9 69 4.1 SE 28 37 15 20 1021.0 1021.0 0.2
16/10:30am 26.8 24.9 21.3 72 3.7 SE 33 44 18 24 1021.3 1021.3 0.2
16/10:00am 26.3 25.4 20.6 71 3.7 SSE 26 33 14 18 1021.7 1021.7 0.2
16/09:30am 25.6 24.2 21.1 76 3.0 SSE 30 39 16 21 1021.7 1021.7 0.0
16/09:00am 25.2 24.8 20.9 77 2.8 SSE 24 32 13 17 1021.7 1021.7 5.6
16/08:30am 24.4 23.7 20.3 78 2.7 SSE 24 33 13 18 1021.6 1021.6 5.6
16/08:00am 23.5 23.1 20.2 82 2.1 SSE 22 30 12 16 1021.4 1021.4 5.6
16/07:30am 22.6 22.1 19.9 85 1.7 SSE 22 32 12 17 1021.2 1021.2 5.6
16/07:00am 21.7 21.8 20.0 90 1.1 S 19 24 10 13 1021.1 1021.1 5.6
16/06:30am 21.8 22.1 20.3 91 1.0 SSE 19 26 10 14 1020.8 1020.8 5.6
16/06:00am 21.7 21.5 20.5 93 0.8 S 22 30 12 16 1020.4 1020.4 5.6
16/05:30am 21.8 22.0 20.6 93 0.8 S 20 28 11 15 1020.2 1020.2 5.6
16/05:00am 22.1 23.0 20.9 93 0.8 S 17 22 9 12 1020.1 1020.1 5.6
16/04:58am 22.1 23.4 20.9 93 0.8 S 15 22 8 12 1020.1 1020.1 5.6
16/04:38am 22.4 22.9 21.2 93 0.8 S 20 28 11 15 1020.1 1020.1 5.6
16/04:30am 22.7 22.6 20.8 89 1.2 SSE 22 30 12 16 1019.9 1019.9 4.8
16/04:21am 23.1 23.8 21.2 89 1.2 ESE 19 26 10 14 1019.7 1019.7 4.8
16/04:14am 22.5 22.6 20.4 88 1.4 SE 20 33 11 18 1019.8 1019.8 4.8
16/04:02am 22.4 22.0 20.9 91 1.0 SE 24 37 13 20 1020.1 1020.1 4.6
16/04:00am 22.8 23.0 21.3 91 1.0 SE 22 35 12 19 1020.1 1020.1 4.6
16/03:58am 22.9 23.4 21.2 90 1.1 ESE 20 33 11 18 1020.1 1020.1 4.6
16/03:43am 23.2 25.6 21.5 90 1.1 ENE 11 20 6 11 1019.9 1019.9 4.4
16/03:37am 23.4 24.5 21.3 88 1.4 E 17 22 9 12 1020.0 1020.0 3.6
16/03:30am 23.7 25.0 21.6 88 1.4 ESE 17 22 9 12 1019.9 1019.9 2.6
16/03:00am 23.1 24.1 21.0 88 1.4 SSE 17 24 9 13 1020.2 1020.2 2.6
16/02:30am 23.2 24.2 20.3 84 1.9 SSE 15 26 8 14 1020.2 1020.2 2.6
16/02:00am 23.9 23.3 20.6 82 2.1 SE 24 30 13 16 1020.5 1020.5 2.6
16/01:30am 23.6 23.1 20.7 84 1.9 ESE 24 32 13 17 1020.7 1020.7 2.6
16/01:11am 22.7 23.1 21.7 94 0.7 SE 22 37 12 20 1020.9 1020.9 2.6
16/01:00am 21.7 23.3 20.7 94 0.6 SSW 13 17 7 9 1020.9 1020.9 2.6
16/12:30am 22.0 23.8 21.2 95 0.5 SSW 13 17 7 9 1021.3 1021.3 2.6
16/12:00am 22.6 25.1 21.8 95 0.5 S 11 15 6 8 1021.5 1021.5 2.6
 
Date/Time
EST
Temp
°C
App
Temp
°C
Dew
Point
Rel
Hum
%
Delta-T
°C
Wind Press
QNH
hPa
Press
MSL
hPa
Rain
since 9 am
mm
Dir
 
Spd
km/h
Gust
km/h
Spd
kts
Gust
kts
15/11:30pm 22.5 23.7 21.5 94 0.7 S 17 22 9 12 1021.9 1021.9 2.6
15/11:11pm 23.3 23.0 21.9 92 0.9 SE 26 35 14 19 1021.9 1021.9 2.4
15/11:06pm 23.1 23.6 21.9 93 0.8 SE 22 35 12 19 1021.9 1021.9 2.4
15/11:00pm 22.9 24.5 22.1 95 0.5 SE 17 24 9 13 1021.9 1021.9 2.4
15/10:42pm 22.6 21.7 21.4 93 0.8 SE 28 41 15 22 1022.2 1022.2 2.0
15/10:35pm 23.1 23.0 21.5 91 1.1 SSE 24 35 13 19 1022.3 1022.3 0.8
15/10:30pm 23.2 23.2 20.9 87 1.5 SSE 22 30 12 16 1022.1 1022.1 0.0
15/10:00pm 23.4 23.8 20.7 85 1.8 SE 19 26 10 14 1022.0 1022.0 0.0
15/09:30pm 23.1 23.1 20.2 84 1.9 SE 20 28 11 15 1021.9 1021.9 0.0
15/09:00pm 24.3 22.1 20.8 81 2.3 ESE 33 43 18 23 1021.7 1021.7 0.0
15/08:30pm 25.2 24.4 20.9 77 2.8 ESE 26 33 14 18 1021.5 1021.5 0.0
15/08:00pm 24.7 25.4 20.4 77 2.8 ESE 17 22 9 12 1021.0 1021.0 0.0
15/07:30pm 24.2 23.6 20.5 80 2.4 ESE 24 33 13 18 1021.0 1021.0 0.0
15/07:27pm 24.2 24.1 20.7 81 2.3 ESE 22 33 12 18 1021.0 1021.0 0.0
15/07:15pm 23.5 22.4 21.0 86 1.6 ESE 28 46 15 25 1021.0 1021.0 0.0
15/07:12pm 23.5 21.6 21.0 86 1.6 ESE 32 46 17 25 1021.0 1021.0 0.0
15/07:00pm 25.2 24.5 21.1 78 2.7 ESE 26 35 14 19 1020.7 1020.7 0.0
15/06:30pm 25.5 24.9 20.5 74 3.3 ESE 24 35 13 19 1020.4 1020.4 0.0
15/06:00pm 25.7 25.4 21.1 76 3.0 ESE 24 32 13 17 1020.2 1020.2 0.0
15/05:30pm 26.4 25.2 19.3 65 4.6 SE 24 30 13 16 1019.8 1019.8 0.0

Other Formats:

Comma delimited format used in spreadsheet applications
http://www.bom.gov.au/fwo/IDQ60801/IDQ60801.95367.axf

JavaScript Object Notation format (JSON) in row-major order
http://www.bom.gov.au/fwo/IDQ60801/IDQ60801.95367.json